sensor_id;sensor_type;location;lat;lon;timestamp;pressure;altitude;pressure_sealevel;temperature;humidity
29371;BME280;16357;52.188;7.838;2023-03-14T00:01:08;98272.91;;;14.54;57.59
29371;BME280;16357;52.188;7.838;2023-03-14T00:03:34;98288.25;;;14.53;57.94
29371;BME280;16357;52.188;7.838;2023-03-14T00:06:05;98285.56;;;14.53;58.03
29371;BME280;16357;52.188;7.838;2023-03-14T00:08:32;98273.13;;;14.52;57.91
29371;BME280;16357;52.188;7.838;2023-03-14T00:11:06;98259.63;;;14.52;57.80
29371;BME280;16357;52.188;7.838;2023-03-14T00:13:33;98264.22;;;14.52;57.50
29371;BME280;16357;52.188;7.838;2023-03-14T00:16:10;98261.50;;;14.52;57.45
29371;BME280;16357;52.188;7.838;2023-03-14T00:18:38;98254.94;;;14.47;57.56
29371;BME280;16357;52.188;7.838;2023-03-14T00:21:07;98250.03;;;14.44;57.36
29371;BME280;16357;52.188;7.838;2023-03-14T00:23:35;98264.03;;;14.41;57.55
29371;BME280;16357;52.188;7.838;2023-03-14T00:26:05;98265.31;;;14.39;57.58
29371;BME280;16357;52.188;7.838;2023-03-14T00:28:31;98248.25;;;14.33;57.53
29371;BME280;16357;52.188;7.838;2023-03-14T00:30:58;98232.53;;;14.30;57.73
29371;BME280;16357;52.188;7.838;2023-03-14T00:33:25;98242.16;;;14.26;57.49
29371;BME280;16357;52.188;7.838;2023-03-14T00:36:02;98249.94;;;14.22;57.55
29371;BME280;16357;52.188;7.838;2023-03-14T00:38:32;98248.75;;;14.18;57.38
29371;BME280;16357;52.188;7.838;2023-03-14T00:40:59;98241.66;;;14.12;57.66
29371;BME280;16357;52.188;7.838;2023-03-14T00:43:25;98224.31;;;14.08;57.63
29371;BME280;16357;52.188;7.838;2023-03-14T00:45:52;98210.72;;;14.03;57.74
29371;BME280;16357;52.188;7.838;2023-03-14T00:48:19;98207.94;;;13.98;57.85
29371;BME280;16357;52.188;7.838;2023-03-14T00:50:47;98169.06;;;13.94;57.68
29371;BME280;16357;52.188;7.838;2023-03-14T00:53:13;98165.47;;;13.88;57.77
29371;BME280;16357;52.188;7.838;2023-03-14T00:55:41;98176.94;;;13.83;57.74
29371;BME280;16357;52.188;7.838;2023-03-14T00:58:10;98183.06;;;13.79;57.69
29371;BME280;16357;52.188;7.838;2023-03-14T01:00:36;98183.22;;;13.72;58.00
29371;BME280;16357;52.188;7.838;2023-03-14T01:03:05;98193.06;;;13.67;58.05
29371;BME280;16357;52.188;7.838;2023-03-14T01:05:32;98203.75;;;13.61;58.28
29371;BME280;16357;52.188;7.838;2023-03-14T01:07:59;98222.50;;;13.56;58.03
29371;BME280;16357;52.188;7.838;2023-03-14T01:10:25;98234.78;;;13.52;58.49
29371;BME280;16357;52.188;7.838;2023-03-14T01:12:52;98215.59;;;13.49;58.69
29371;BME280;16357;52.188;7.838;2023-03-14T01:15:18;98209.84;;;13.45;58.72
29371;BME280;16357;52.188;7.838;2023-03-14T01:17:45;98203.91;;;13.43;59.01
29371;BME280;16357;52.188;7.838;2023-03-14T01:20:13;98198.75;;;13.42;58.89
29371;BME280;16357;52.188;7.838;2023-03-14T01:22:41;98181.78;;;13.41;59.21
29371;BME280;16357;52.188;7.838;2023-03-14T01:25:13;98182.38;;;13.43;58.96
29371;BME280;16357;52.188;7.838;2023-03-14T01:27:40;98184.81;;;13.45;59.02
29371;BME280;16357;52.188;7.838;2023-03-14T01:30:09;98182.94;;;13.45;58.88
29371;BME280;16357;52.188;7.838;2023-03-14T01:32:35;98193.69;;;13.45;58.97
29371;BME280;16357;52.188;7.838;2023-03-14T01:35:03;98210.44;;;13.47;59.15
29371;BME280;16357;52.188;7.838;2023-03-14T01:37:29;98215.59;;;13.49;59.03
29371;BME280;16357;52.188;7.838;2023-03-14T01:39:56;98205.16;;;13.52;59.13
29371;BME280;16357;52.188;7.838;2023-03-14T01:42:22;98213.56;;;13.56;59.03
29371;BME280;16357;52.188;7.838;2023-03-14T01:44:54;98198.59;;;13.60;59.04
29371;BME280;16357;52.188;7.838;2023-03-14T01:47:22;98205.38;;;13.63;58.97
29371;BME280;16357;52.188;7.838;2023-03-14T01:52:23;98196.91;;;13.71;58.60
29371;BME280;16357;52.188;7.838;2023-03-14T01:54:54;98195.63;;;13.73;58.70
29371;BME280;16357;52.188;7.838;2023-03-14T02:00:15;98203.81;;;13.78;58.35
29371;BME280;16357;52.188;7.838;2023-03-14T02:02:44;98192.31;;;13.83;58.06
29371;BME280;16357;52.188;7.838;2023-03-14T02:05:12;98183.16;;;13.84;58.14
29371;BME280;16357;52.188;7.838;2023-03-14T02:07:51;98181.03;;;13.86;58.50
29371;BME280;16357;52.188;7.838;2023-03-14T02:10:20;98171.88;;;13.87;58.87
29371;BME280;16357;52.188;7.838;2023-03-14T02:12:49;98175.44;;;13.88;58.84
29371;BME280;16357;52.188;7.838;2023-03-14T02:15:16;98165.47;;;13.88;59.19
29371;BME280;16357;52.188;7.838;2023-03-14T02:17:44;98184.56;;;13.87;59.00
29371;BME280;16357;52.188;7.838;2023-03-14T02:23:03;98186.91;;;13.83;59.55
29371;BME280;16357;52.188;7.838;2023-03-14T02:25:38;98190.66;;;13.82;59.44
29371;BME280;16357;52.188;7.838;2023-03-14T02:28:07;98184.13;;;13.78;59.61
29371;BME280;16357;52.188;7.838;2023-03-14T02:30:34;98179.22;;;13.75;59.71
29371;BME280;16357;52.188;7.838;2023-03-14T02:33:13;98186.13;;;13.71;59.71
29371;BME280;16357;52.188;7.838;2023-03-14T02:35:47;98190.38;;;13.67;59.75
29371;BME280;16357;52.188;7.838;2023-03-14T02:38:21;98178.44;;;13.63;60.16
29371;BME280;16357;52.188;7.838;2023-03-14T02:40:49;98175.63;;;13.57;60.22
29371;BME280;16357;52.188;7.838;2023-03-14T02:43:15;98185.28;;;13.53;60.22
29371;BME280;16357;52.188;7.838;2023-03-14T02:45:44;98190.56;;;13.48;60.12
29371;BME280;16357;52.188;7.838;2023-03-14T02:48:18;98187.50;;;13.45;60.45
29371;BME280;16357;52.188;7.838;2023-03-14T02:50:49;98188.19;;;13.40;59.89
29371;BME280;16357;52.188;7.838;2023-03-14T02:53:23;98195.13;;;13.36;60.44
29371;BME280;16357;52.188;7.838;2023-03-14T02:55:50;98182.63;;;13.30;60.40
29371;BME280;16357;52.188;7.838;2023-03-14T02:58:18;98185.78;;;13.27;60.86
29371;BME280;16357;52.188;7.838;2023-03-14T03:00:45;98191.59;;;13.24;60.86
29371;BME280;16357;52.188;7.838;2023-03-14T03:03:12;98187.75;;;13.20;60.80
29371;BME280;16357;52.188;7.838;2023-03-14T03:05:38;98185.56;;;13.16;60.69
29371;BME280;16357;52.188;7.838;2023-03-14T03:08:05;98182.75;;;13.11;60.79
29371;BME280;16357;52.188;7.838;2023-03-14T03:10:32;98188.56;;;13.08;60.92
29371;BME280;16357;52.188;7.838;2023-03-14T03:12:59;98181.44;;;13.02;60.94
29371;BME280;16357;52.188;7.838;2023-03-14T03:15:25;98182.16;;;12.98;60.79
29371;BME280;16357;52.188;7.838;2023-03-14T03:17:52;98187.19;;;12.94;60.79
29371;BME280;16357;52.188;7.838;2023-03-14T03:20:19;98190.56;;;12.89;60.80
29371;BME280;16357;52.188;7.838;2023-03-14T03:22:45;98181.56;;;12.84;60.66
29371;BME280;16357;52.188;7.838;2023-03-14T03:25:12;98193.03;;;12.79;60.79
29371;BME280;16357;52.188;7.838;2023-03-14T03:27:38;98187.19;;;12.70;60.83
29371;BME280;16357;52.188;7.838;2023-03-14T03:30:05;98189.75;;;12.65;61.03
29371;BME280;16357;52.188;7.838;2023-03-14T03:32:33;98186.13;;;12.60;60.96
29371;BME280;16357;52.188;7.838;2023-03-14T03:34:59;98173.84;;;12.52;61.05
29371;BME280;16357;52.188;7.838;2023-03-14T03:37:26;98168.59;;;12.45;61.21
29371;BME280;16357;52.188;7.838;2023-03-14T03:39:52;98164.13;;;12.39;61.30
29371;BME280;16357;52.188;7.838;2023-03-14T03:42:19;98167.75;;;12.33;61.45
29371;BME280;16357;52.188;7.838;2023-03-14T03:44:45;98164.91;;;12.28;61.76
29371;BME280;16357;52.188;7.838;2023-03-14T03:47:12;98162.09;;;12.23;61.95
29371;BME280;16357;52.188;7.838;2023-03-14T03:49:38;98166.88;;;12.21;62.06
29371;BME280;16357;52.188;7.838;2023-03-14T03:52:07;98165.25;;;12.20;62.03
29371;BME280;16357;52.188;7.838;2023-03-14T03:54:33;98181.59;;;12.18;62.32
29371;BME280;16357;52.188;7.838;2023-03-14T03:56:59;98171.09;;;12.17;62.42
29371;BME280;16357;52.188;7.838;2023-03-14T03:59:26;98164.88;;;12.16;62.15
29371;BME280;16357;52.188;7.838;2023-03-14T04:01:53;98159.50;;;12.16;62.50
29371;BME280;16357;52.188;7.838;2023-03-14T04:04:20;98170.25;;;12.16;61.97
29371;BME280;16357;52.188;7.838;2023-03-14T04:06:46;98166.53;;;12.17;62.34
29371;BME280;16357;52.188;7.838;2023-03-14T04:09:14;98169.81;;;12.19;62.27
29371;BME280;16357;52.188;7.838;2023-03-14T04:11:40;98169.81;;;12.19;62.18
29371;BME280;16357;52.188;7.838;2023-03-14T04:14:07;98176.81;;;12.20;62.22
29371;BME280;16357;52.188;7.838;2023-03-14T04:16:34;98168.75;;;12.20;62.22
29371;BME280;16357;52.188;7.838;2023-03-14T04:19:01;98171.44;;;12.20;61.94
29371;BME280;16357;52.188;7.838;2023-03-14T04:21:28;98167.69;;;12.21;62.16
29371;BME280;16357;52.188;7.838;2023-03-14T04:23:54;98168.53;;;12.22;62.20
29371;BME280;16357;52.188;7.838;2023-03-14T04:26:21;98163.97;;;12.22;62.09
29371;BME280;16357;52.188;7.838;2023-03-14T04:28:47;98162.09;;;12.23;62.24
29371;BME280;16357;52.188;7.838;2023-03-14T04:31:18;98163.50;;;12.25;62.06
29371;BME280;16357;52.188;7.838;2023-03-14T04:33:45;98165.13;;;12.26;62.08
29371;BME280;16357;52.188;7.838;2023-03-14T04:36:12;98166.78;;;12.27;62.28
29371;BME280;16357;52.188;7.838;2023-03-14T04:38:39;98158.72;;;12.27;62.03
29371;BME280;16357;52.188;7.838;2023-03-14T04:41:06;98160.34;;;12.28;62.17
29371;BME280;16357;52.188;7.838;2023-03-14T04:43:33;98152.28;;;12.28;61.95
29371;BME280;16357;52.188;7.838;2023-03-14T04:46:00;98158.25;;;12.30;62.03
29371;BME280;16357;52.188;7.838;2023-03-14T04:48:26;98146.91;;;12.28;62.22
29371;BME280;16357;52.188;7.838;2023-03-14T04:50:53;98150.19;;;12.30;61.87
29371;BME280;16357;52.188;7.838;2023-03-14T04:53:20;98136.75;;;12.30;61.73
29371;BME280;16357;52.188;7.838;2023-03-14T04:55:51;98136.50;;;12.32;61.69
29371;BME280;16357;52.188;7.838;2023-03-14T04:58:19;98136.50;;;12.32;61.68
29371;BME280;16357;52.188;7.838;2023-03-14T05:00:47;98133.81;;;12.32;61.62
29371;BME280;16357;52.188;7.838;2023-03-14T05:03:17;98127.16;;;12.35;61.63
29371;BME280;16357;52.188;7.838;2023-03-14T05:05:44;98129.03;;;12.34;61.67
29371;BME280;16357;52.188;7.838;2023-03-14T05:08:11;98121.78;;;12.35;61.77
29371;BME280;16357;52.188;7.838;2023-03-14T05:10:37;98123.66;;;12.34;61.70
29371;BME280;16357;52.188;7.838;2023-03-14T05:13:04;98126.13;;;12.36;61.57
29371;BME280;16357;52.188;7.838;2023-03-14T05:15:30;98122.38;;;12.37;62.03
29371;BME280;16357;52.188;7.838;2023-03-14T05:17:57;98124.03;;;12.38;61.96
29371;BME280;16357;52.188;7.838;2023-03-14T05:20:23;98111.16;;;12.40;61.92
29371;BME280;16357;52.188;7.838;2023-03-14T05:22:50;98105.56;;;12.41;61.46
29371;BME280;16357;52.188;7.838;2023-03-14T05:25:17;98096.22;;;12.44;61.68
29371;BME280;16357;52.188;7.838;2023-03-14T05:27:43;98110.25;;;12.46;61.70
29371;BME280;16357;52.188;7.838;2023-03-14T05:30:10;98109.78;;;12.49;61.69
29371;BME280;16357;52.188;7.838;2023-03-14T05:32:37;98108.47;;;12.51;61.38
29371;BME280;16357;52.188;7.838;2023-03-14T05:35:03;98100.16;;;12.53;61.54
29371;BME280;16357;52.188;7.838;2023-03-14T05:37:30;98095.16;;;12.57;61.58
29371;BME280;16357;52.188;7.838;2023-03-14T05:39:57;98095.97;;;12.57;61.41
29371;BME280;16357;52.188;7.838;2023-03-14T05:42:24;98104.63;;;12.59;61.46
29371;BME280;16357;52.188;7.838;2023-03-14T05:44:50;98101.94;;;12.59;61.30
29371;BME280;16357;52.188;7.838;2023-03-14T05:47:16;98117.00;;;12.60;61.26
29371;BME280;16357;52.188;7.838;2023-03-14T05:49:43;98107.06;;;12.61;61.30
29371;BME280;16357;52.188;7.838;2023-03-14T05:52:09;98103.34;;;12.62;61.33
29371;BME280;16357;52.188;7.838;2023-03-14T05:54:36;98101.47;;;12.62;61.13
29371;BME280;16357;52.188;7.838;2023-03-14T05:57:02;98103.09;;;12.63;60.88
29371;BME280;16357;52.188;7.838;2023-03-14T05:59:28;98106.03;;;12.62;60.90
29371;BME280;16357;52.188;7.838;2023-03-14T06:01:55;98099.00;;;12.61;60.99
29371;BME280;16357;52.188;7.838;2023-03-14T06:04:22;98099.25;;;12.59;60.85
29371;BME280;16357;52.188;7.838;2023-03-14T06:06:48;98099.25;;;12.59;60.75
29371;BME280;16357;52.188;7.838;2023-03-14T06:09:14;98100.53;;;12.57;60.95
29371;BME280;16357;52.188;7.838;2023-03-14T06:11:41;98105.09;;;12.56;61.18
29371;BME280;16357;52.188;7.838;2023-03-14T06:14:07;98105.31;;;12.55;61.04
29371;BME280;16357;52.188;7.838;2023-03-14T06:16:33;98112.56;;;12.54;61.25
29371;BME280;16357;52.188;7.838;2023-03-14T06:19:00;98107.19;;;12.54;61.09
29371;BME280;16357;52.188;7.838;2023-03-14T06:21:26;98108.22;;;12.53;61.02
29371;BME280;16357;52.188;7.838;2023-03-14T06:23:53;98106.59;;;12.52;61.05
29371;BME280;16357;52.188;7.838;2023-03-14T06:26:19;98102.28;;;12.51;61.18
29371;BME280;16357;52.188;7.838;2023-03-14T06:28:45;98106.03;;;12.50;61.05
29371;BME280;16357;52.188;7.838;2023-03-14T06:31:12;98105.19;;;12.49;61.17
29371;BME280;16357;52.188;7.838;2023-03-14T06:33:39;98100.63;;;12.50;61.52
29371;BME280;16357;52.188;7.838;2023-03-14T06:36:05;98107.69;;;12.51;61.56
29371;BME280;16357;52.188;7.838;2023-03-14T06:38:32;98103.91;;;12.52;61.51
29371;BME280;16357;52.188;7.838;2023-03-14T06:41:06;98097.25;;;12.55;61.44
29371;BME280;16357;52.188;7.838;2023-03-14T06:43:33;98095.16;;;12.57;61.28
29371;BME280;16357;52.188;7.838;2023-03-14T06:45:59;98103.81;;;12.59;61.40
29371;BME280;16357;52.188;7.838;2023-03-14T06:48:26;98104.63;;;12.59;61.24
29371;BME280;16357;52.188;7.838;2023-03-14T06:50:52;98106.84;;;12.62;61.41
29371;BME280;16357;52.188;7.838;2023-03-14T06:53:19;98116.53;;;12.63;61.45
29371;BME280;16357;52.188;7.838;2023-03-14T06:55:45;98107.44;;;12.64;61.63
29371;BME280;16357;52.188;7.838;2023-03-14T06:58:12;98107.44;;;12.64;61.70
29371;BME280;16357;52.188;7.838;2023-03-14T07:00:38;98117.13;;;12.65;61.85
29371;BME280;16357;52.188;7.838;2023-03-14T07:03:04;98119.00;;;12.65;62.21
29371;BME280;16357;52.188;7.838;2023-03-14T07:05:31;98119.22;;;12.63;62.10
29371;BME280;16357;52.188;7.838;2023-03-14T07:07:57;98114.91;;;12.62;62.20
29371;BME280;16357;52.188;7.838;2023-03-14T07:10:24;98109.75;;;12.61;62.48
29371;BME280;16357;52.188;7.838;2023-03-14T07:12:50;98117.25;;;12.59;62.48
29371;BME280;16357;52.188;7.838;2023-03-14T07:15:18;98118.28;;;12.58;62.67
29371;BME280;16357;52.188;7.838;2023-03-14T07:17:46;98122.88;;;12.57;62.79
29371;BME280;16357;52.188;7.838;2023-03-14T07:20:14;98124.50;;;12.58;62.64
29371;BME280;16357;52.188;7.838;2023-03-14T07:22:40;98118.28;;;12.58;62.76
29371;BME280;16357;52.188;7.838;2023-03-14T07:25:07;98123.69;;;12.58;62.99
29371;BME280;16357;52.188;7.838;2023-03-14T07:27:35;98123.69;;;12.58;62.95
29371;BME280;16357;52.188;7.838;2023-03-14T07:30:02;98122.88;;;12.57;63.14
29371;BME280;16357;52.188;7.838;2023-03-14T07:32:28;98120.16;;;12.57;63.48
29371;BME280;16357;52.188;7.838;2023-03-14T07:34:54;98128.25;;;12.57;63.45
29371;BME280;16357;52.188;7.838;2023-03-14T07:37:21;98135.72;;;12.55;63.63
29371;BME280;16357;52.188;7.838;2023-03-14T07:39:47;98130.59;;;12.54;64.04
29371;BME280;16357;52.188;7.838;2023-03-14T07:42:14;98125.22;;;12.54;64.12
29371;BME280;16357;52.188;7.838;2023-03-14T07:44:40;98133.03;;;12.55;64.40
29371;BME280;16357;52.188;7.838;2023-03-14T07:47:06;98127.44;;;12.57;64.58
29371;BME280;16357;52.188;7.838;2023-03-14T07:49:33;98143.09;;;12.60;64.47
29371;BME280;16357;52.188;7.838;2023-03-14T07:51:59;98131.06;;;12.62;64.54
29371;BME280;16357;52.188;7.838;2023-03-14T07:54:26;98135.97;;;12.65;64.47
29371;BME280;16357;52.188;7.838;2023-03-14T07:56:52;98135.47;;;12.68;64.69
29371;BME280;16357;52.188;7.838;2023-03-14T07:59:19;98134.19;;;12.71;64.95
29371;BME280;16357;52.188;7.838;2023-03-14T08:01:45;98142.38;;;12.76;64.92
29371;BME280;16357;52.188;7.838;2023-03-14T08:04:11;98145.19;;;12.81;65.12
29371;BME280;16357;52.188;7.838;2023-03-14T08:06:38;98145.09;;;12.88;64.89
29371;BME280;16357;52.188;7.838;2023-03-14T08:09:05;98145.75;;;12.95;64.95
29371;BME280;16357;52.188;7.838;2023-03-14T08:11:31;98146.72;;;13.01;64.95
29371;BME280;16357;52.188;7.838;2023-03-14T08:13:57;98145.75;;;13.07;64.37
29371;BME280;16357;52.188;7.838;2023-03-14T08:16:24;98138.03;;;13.10;64.49
29371;BME280;16357;52.188;7.838;2023-03-14T08:18:50;98147.00;;;13.16;64.42
29371;BME280;16357;52.188;7.838;2023-03-14T08:21:16;98139.88;;;13.22;64.55
29371;BME280;16357;52.188;7.838;2023-03-14T08:23:43;98149.72;;;13.28;64.41
29371;BME280;16357;52.188;7.838;2023-03-14T08:26:09;98147.97;;;13.33;64.41
29371;BME280;16357;52.188;7.838;2023-03-14T08:28:36;98137.88;;;13.41;64.22
29371;BME280;16357;52.188;7.838;2023-03-14T08:31:02;98143.91;;;13.48;64.13
29371;BME280;16357;52.188;7.838;2023-03-14T08:33:29;98138.63;;;13.53;63.72
29371;BME280;16357;52.188;7.838;2023-03-14T08:35:58;98139.81;;;13.57;63.60
29371;BME280;16357;52.188;7.838;2023-03-14T08:38:25;98137.44;;;13.60;63.47
29371;BME280;16357;52.188;7.838;2023-03-14T08:40:56;98142.34;;;13.64;63.52
29371;BME280;16357;52.188;7.838;2023-03-14T08:43:23;98142.34;;;13.64;63.48
29371;BME280;16357;52.188;7.838;2023-03-14T08:45:50;98141.53;;;13.63;63.52
29371;BME280;16357;52.188;7.838;2023-03-14T08:48:16;98149.88;;;13.61;63.92
29371;BME280;16357;52.188;7.838;2023-03-14T08:50:42;98139.31;;;13.60;64.00
29371;BME280;16357;52.188;7.838;2023-03-14T08:53:09;98147.19;;;13.61;64.14
29371;BME280;16357;52.188;7.838;2023-03-14T08:55:36;98149.88;;;13.61;64.03
29371;BME280;16357;52.188;7.838;2023-03-14T08:58:02;98142.84;;;13.60;63.80
29371;BME280;16357;52.188;7.838;2023-03-14T09:00:29;98142.00;;;13.60;64.15
29371;BME280;16357;52.188;7.838;2023-03-14T09:02:55;98148.22;;;13.60;63.95
29371;BME280;16357;52.188;7.838;2023-03-14T09:05:21;98141.22;;;13.59;64.14
29371;BME280;16357;52.188;7.838;2023-03-14T09:07:48;98149.03;;;13.61;64.50
29371;BME280;16357;52.188;7.838;2023-03-14T09:10:14;98135.34;;;13.63;64.56
29371;BME280;16357;52.188;7.838;2023-03-14T09:12:41;98149.38;;;13.65;64.43
29371;BME280;16357;52.188;7.838;2023-03-14T09:15:08;98155.59;;;13.65;64.55
29371;BME280;16357;52.188;7.838;2023-03-14T09:17:34;98158.28;;;13.65;64.38
29371;BME280;16357;52.188;7.838;2023-03-14T09:20:02;98160.16;;;13.65;64.51
29371;BME280;16357;52.188;7.838;2023-03-14T09:22:32;98170.34;;;13.63;64.28
29371;BME280;16357;52.188;7.838;2023-03-14T09:24:59;98197.78;;;13.59;64.90
29371;BME280;16357;52.188;7.838;2023-03-14T09:27:26;98206.34;;;13.56;65.00
29371;BME280;16357;52.188;7.838;2023-03-14T09:29:52;98202.47;;;13.52;64.97
29371;BME280;16357;52.188;7.838;2023-03-14T09:32:18;98213.94;;;13.48;65.13
29371;BME280;16357;52.188;7.838;2023-03-14T09:34:45;98206.59;;;13.43;64.38
29371;BME280;16357;52.188;7.838;2023-03-14T09:37:12;98244.66;;;13.35;63.92
29371;BME280;16357;52.188;7.838;2023-03-14T09:39:38;98275.66;;;13.26;62.99
29371;BME280;16357;52.188;7.838;2023-03-14T09:42:06;98263.94;;;13.08;63.27
29371;BME280;16357;52.188;7.838;2023-03-14T09:44:39;98272.59;;;12.87;63.54
29371;BME280;16357;52.188;7.838;2023-03-14T09:47:11;98284.22;;;12.57;63.93
29371;BME280;16357;52.188;7.838;2023-03-14T09:49:40;98288.78;;;12.26;64.42
29371;BME280;16357;52.188;7.838;2023-03-14T09:52:35;98299.53;;;11.96;65.23
29371;BME280;16357;52.188;7.838;2023-03-14T09:55:11;98308.25;;;11.73;65.87
29371;BME280;16357;52.188;7.838;2023-03-14T09:57:41;98314.06;;;11.52;66.72
29371;BME280;16357;52.188;7.838;2023-03-14T10:00:15;98317.06;;;11.37;66.93
29371;BME280;16357;52.188;7.838;2023-03-14T10:02:47;98332.50;;;11.23;67.21
29371;BME280;16357;52.188;7.838;2023-03-14T10:05:18;98354.88;;;11.10;67.43
29371;BME280;16357;52.188;7.838;2023-03-14T10:07:45;98378.31;;;10.96;67.48
29371;BME280;16357;52.188;7.838;2023-03-14T10:10:18;98389.94;;;10.84;67.02
29371;BME280;16357;52.188;7.838;2023-03-14T10:13:25;98415.22;;;10.63;67.59
29371;BME280;16357;52.188;7.838;2023-03-14T10:16:02;98421.34;;;10.38;66.28
29371;BME280;16357;52.188;7.838;2023-03-14T10:18:30;98436.22;;;10.14;66.08
29371;BME280;16357;52.188;7.838;2023-03-14T10:21:27;98442.47;;;9.88;66.67
29371;BME280;16357;52.188;7.838;2023-03-14T10:24:10;98481.19;;;9.65;66.71
29371;BME280;16357;52.188;7.838;2023-03-14T10:26:37;98496.41;;;9.45;67.06
29371;BME280;16357;52.188;7.838;2023-03-14T10:29:09;98534.06;;;9.23;66.38
29371;BME280;16357;52.188;7.838;2023-03-14T10:34:22;98542.13;;;8.75;66.04
29371;BME280;16357;52.188;7.838;2023-03-14T10:36:53;98557.00;;;8.50;65.65
29371;BME280;16357;52.188;7.838;2023-03-14T10:39:30;98567.72;;;8.28;65.29
29371;BME280;16357;52.188;7.838;2023-03-14T10:42:09;98563.66;;;8.04;66.62
29371;BME280;16357;52.188;7.838;2023-03-14T10:44:39;98575.81;;;7.85;66.32
29371;BME280;16357;52.188;7.838;2023-03-14T10:47:05;98587.59;;;7.69;66.56
29371;BME280;16357;52.188;7.838;2023-03-14T10:49:35;98616.81;;;7.56;66.80
29371;BME280;16357;52.188;7.838;2023-03-14T10:54:39;98652.66;;;7.32;67.76
29371;BME280;16357;52.188;7.838;2023-03-14T10:57:06;98669.41;;;7.26;67.87
29371;BME280;16357;52.188;7.838;2023-03-14T10:59:39;98691.66;;;7.18;67.88
29371;BME280;16357;52.188;7.838;2023-03-14T11:02:55;98737.91;;;7.11;67.30
29371;BME280;16357;52.188;7.838;2023-03-14T11:05:40;98707.31;;;7.07;67.54
29371;BME280;16357;52.188;7.838;2023-03-14T11:08:20;98719.53;;;7.01;67.57
29371;BME280;16357;52.188;7.838;2023-03-14T11:10:54;98742.72;;;7.00;66.83
29371;BME280;16357;52.188;7.838;2023-03-14T11:13:35;98749.69;;;7.01;67.07
29371;BME280;16357;52.188;7.838;2023-03-14T11:21:29;98780.94;;;7.08;66.37
29371;BME280;16357;52.188;7.838;2023-03-14T11:26:50;98804.69;;;7.17;65.76
29371;BME280;16357;52.188;7.838;2023-03-14T11:29:39;98809.09;;;7.25;65.77
29371;BME280;16357;52.188;7.838;2023-03-14T11:34:54;98828.13;;;7.37;65.66
29371;BME280;16357;52.188;7.838;2023-03-14T11:37:35;98826.56;;;7.42;65.37
29371;BME280;16357;52.188;7.838;2023-03-14T11:40:18;98839.00;;;7.50;64.36
29371;BME280;16357;52.188;7.838;2023-03-14T11:42:50;98843.78;;;7.55;64.11
29371;BME280;16357;52.188;7.838;2023-03-14T11:45:32;98839.75;;;7.59;64.14
29371;BME280;16357;52.188;7.838;2023-03-14T11:51:02;98863.47;;;7.68;63.35
29371;BME280;16357;52.188;7.838;2023-03-14T11:53:43;98875.28;;;7.74;63.65
29371;BME280;16357;52.188;7.838;2023-03-14T11:56:23;98877.38;;;7.79;64.42
29371;BME280;16357;52.188;7.838;2023-03-14T11:58:57;98892.03;;;7.83;64.05
29371;BME280;16357;52.188;7.838;2023-03-14T12:01:32;98899.47;;;7.87;64.43
29371;BME280;16357;52.188;7.838;2023-03-14T12:04:24;98927.09;;;7.95;64.32
29371;BME280;16357;52.188;7.838;2023-03-14T12:06:56;98914.81;;;8.00;64.32
29371;BME280;16357;52.188;7.838;2023-03-14T12:09:24;98935.00;;;8.03;64.70
29371;BME280;16357;52.188;7.838;2023-03-14T12:12:02;98940.00;;;8.06;64.57
29371;BME280;16357;52.188;7.838;2023-03-14T12:14:37;98944.97;;;8.09;64.98
29371;BME280;16357;52.188;7.838;2023-03-14T12:17:24;98954.06;;;8.14;65.08
29371;BME280;16357;52.188;7.838;2023-03-14T12:22:32;98969.91;;;8.31;64.02
29371;BME280;16357;52.188;7.838;2023-03-14T12:25:05;98975.16;;;8.39;63.88
29371;BME280;16357;52.188;7.838;2023-03-14T12:27:47;98995.44;;;8.48;63.42
29371;BME280;16357;52.188;7.838;2023-03-14T12:30:35;98985.47;;;8.57;62.98
29371;BME280;16357;52.188;7.838;2023-03-14T12:35:40;99007.41;;;8.67;62.10
29371;BME280;16357;52.188;7.838;2023-03-14T12:38:39;99007.03;;;8.70;61.48
29371;BME280;16357;52.188;7.838;2023-03-14T12:46:57;99028.13;;;8.80;60.97
29371;BME280;16357;52.188;7.838;2023-03-14T12:49:30;99049.97;;;8.84;59.80
29371;BME280;16357;52.188;7.838;2023-03-14T12:52:02;99041.56;;;8.87;59.62
29371;BME280;16357;52.188;7.838;2023-03-14T12:57:21;99059.56;;;8.93;58.38
29371;BME280;16357;52.188;7.838;2023-03-14T12:59:57;99077.25;;;8.94;57.56
29371;BME280;16357;52.188;7.838;2023-03-14T13:02:42;99085.09;;;8.95;57.42
29371;BME280;16357;52.188;7.838;2023-03-14T13:05:12;99110.81;;;8.96;57.28
29371;BME280;16357;52.188;7.838;2023-03-14T13:12:54;99125.09;;;9.04;55.19
29371;BME280;16357;52.188;7.838;2023-03-14T13:15:49;99126.56;;;9.06;54.52
29371;BME280;16357;52.188;7.838;2023-03-14T13:18:23;99137.91;;;9.08;53.46
29371;BME280;16357;52.188;7.838;2023-03-14T13:20:59;99138.53;;;9.10;53.59
29371;BME280;16357;52.188;7.838;2023-03-14T13:23:30;99136.53;;;9.12;52.50
29371;BME280;16357;52.188;7.838;2023-03-14T13:25:58;99154.88;;;9.15;52.30
29371;BME280;16357;52.188;7.838;2023-03-14T13:28:26;99165.56;;;9.15;51.74
29371;BME280;16357;52.188;7.838;2023-03-14T13:31:02;99168.53;;;9.20;52.43
29371;BME280;16357;52.188;7.838;2023-03-14T13:33:29;99179.88;;;9.22;52.00
29371;BME280;16357;52.188;7.838;2023-03-14T13:35:57;99183.66;;;9.28;51.51
29371;BME280;16357;52.188;7.838;2023-03-14T13:38:27;99188.06;;;9.36;51.68
29371;BME280;16357;52.188;7.838;2023-03-14T13:40:57;99194.69;;;9.40;50.54
29371;BME280;16357;52.188;7.838;2023-03-14T13:48:32;99216.19;;;9.47;48.94
29371;BME280;16357;52.188;7.838;2023-03-14T13:51:03;99228.09;;;9.44;47.77
29371;BME280;16357;52.188;7.838;2023-03-14T13:53:30;99222.47;;;9.39;47.68
29371;BME280;16357;52.188;7.838;2023-03-14T13:56:01;99241.59;;;9.36;47.97
29371;BME280;16357;52.188;7.838;2023-03-14T13:58:30;99236.63;;;9.33;47.52
29371;BME280;16357;52.188;7.838;2023-03-14T14:01:05;99256.34;;;9.32;47.74
29371;BME280;16357;52.188;7.838;2023-03-14T14:03:35;99257.81;;;9.34;48.47
29371;BME280;16357;52.188;7.838;2023-03-14T14:06:19;99261.59;;;9.40;48.54